createdAt,value
2023-04-22T00:00:55.005Z,3.13
2023-04-22T00:03:23.427Z,2.95
2023-04-22T00:05:51.912Z,3.20
2023-04-22T00:08:20.082Z,3.45
2023-04-22T00:10:48.338Z,3.20
2023-04-22T00:13:17.483Z,3.22
2023-04-22T00:15:47.175Z,2.70
2023-04-22T00:18:15.496Z,2.90
2023-04-22T00:20:44.186Z,2.90
2023-04-22T00:23:12.759Z,2.88
2023-04-22T00:25:41.256Z,2.60
2023-04-22T00:28:09.821Z,3.10
2023-04-22T00:30:38.146Z,3.00
2023-04-22T00:33:07.813Z,2.70
2023-04-22T00:35:35.850Z,2.60
2023-04-22T00:38:03.877Z,2.90
2023-04-22T00:40:32.105Z,2.30
2023-04-22T00:43:01.631Z,2.67
2023-04-22T00:45:31.691Z,2.63
2023-04-22T00:48:00.031Z,2.17
2023-04-22T00:50:29.919Z,2.58
2023-04-22T00:52:57.986Z,3.00
2023-04-22T00:55:26.446Z,2.78
2023-04-22T00:57:56.949Z,3.00
2023-04-22T01:00:27.540Z,2.47
2023-04-22T01:02:56.075Z,3.30
2023-04-22T01:05:24.906Z,2.70
2023-04-22T01:07:54.384Z,2.28
2023-04-22T01:10:22.809Z,2.90
2023-04-22T01:12:53.023Z,2.72
2023-04-22T01:15:21.346Z,2.80
2023-04-22T01:17:49.425Z,2.90
2023-04-22T01:20:17.560Z,2.60
2023-04-22T01:22:46.508Z,2.50
2023-04-22T01:25:16.059Z,3.10
2023-04-22T01:27:44.584Z,2.80
2023-04-22T01:30:13.843Z,3.13
2023-04-22T01:32:42.498Z,2.78
2023-04-22T01:35:11.940Z,3.00
2023-04-22T01:37:40.548Z,2.65
2023-04-22T01:40:10.975Z,3.25
2023-04-22T01:42:40.685Z,2.53
2023-04-22T01:45:10.090Z,2.90
2023-04-22T01:47:38.072Z,3.17
2023-04-22T01:50:07.256Z,2.83
2023-04-22T01:52:35.420Z,3.60
2023-04-22T01:55:03.599Z,3.50
2023-04-22T01:57:31.558Z,2.90
2023-04-22T02:00:01.218Z,3.05
2023-04-22T02:02:29.633Z,2.95
2023-04-22T02:04:58.425Z,2.90
2023-04-22T02:07:26.618Z,2.72
2023-04-22T02:09:55.178Z,3.15
2023-04-22T02:12:23.188Z,3.58
2023-04-22T02:14:51.380Z,3.30
2023-04-22T02:17:22.675Z,3.35
2023-04-22T02:19:50.903Z,3.42
2023-04-22T02:22:19.062Z,2.85
2023-04-22T02:24:47.607Z,3.30
2023-04-22T02:27:15.908Z,3.40
2023-04-22T02:29:43.949Z,3.17
2023-04-22T02:32:12.122Z,3.25
2023-04-22T02:34:41.575Z,2.83
2023-04-22T02:37:09.757Z,2.67
2023-04-22T02:39:37.989Z,2.80
2023-04-22T02:42:06.911Z,2.65
2023-04-22T02:44:35.057Z,3.00
2023-04-22T02:47:03.985Z,3.50
2023-04-22T02:49:32.254Z,3.88
2023-04-22T02:52:01.594Z,2.80
2023-04-22T02:54:29.843Z,3.00
2023-04-22T02:56:58.623Z,3.33
2023-04-22T02:59:26.752Z,2.95
2023-04-22T03:01:55.586Z,2.88
2023-04-22T03:04:38.137Z,3.05
2023-04-22T03:07:07.753Z,3.45
2023-04-22T03:09:36.264Z,2.83
2023-04-22T03:12:04.279Z,3.50
2023-04-22T03:14:32.429Z,3.20
2023-04-22T03:17:00.731Z,3.20
2023-04-22T03:19:28.862Z,2.70
2023-04-22T03:21:59.354Z,3.25
2023-04-22T03:24:29.133Z,3.35
2023-04-22T03:26:57.377Z,3.45
2023-04-22T03:29:25.639Z,3.00
2023-04-22T03:31:53.852Z,3.45
2023-04-22T03:34:22.258Z,3.63
2023-04-22T03:36:50.553Z,3.30
2023-04-22T03:39:18.942Z,3.40
2023-04-22T03:41:49.048Z,3.83
2023-04-22T03:44:17.451Z,3.03
2023-04-22T03:46:46.599Z,3.08
2023-04-22T03:49:27.138Z,3.50
2023-04-22T03:51:56.799Z,4.00
2023-04-22T03:54:26.458Z,3.58
2023-04-22T03:56:55.745Z,3.38
2023-04-22T03:59:24.629Z,3.50
2023-04-22T04:01:54.208Z,3.45
2023-04-22T04:04:29.835Z,3.35
2023-04-22T04:07:02.172Z,3.15
2023-04-22T04:09:32.016Z,3.10
2023-04-22T04:12:01.618Z,3.03
2023-04-22T04:14:33.553Z,3.28
2023-04-22T04:17:03.619Z,3.25
2023-04-22T04:19:33.951Z,3.72
2023-04-22T04:22:03.641Z,3.40
2023-04-22T04:24:41.827Z,3.40
2023-04-22T04:27:17.824Z,3.10
2023-04-22T04:29:52.648Z,3.10
2023-04-22T04:32:35.851Z,3.67
2023-04-22T04:35:08.500Z,3.85
2023-04-22T04:37:37.123Z,3.20
2023-04-22T04:40:12.199Z,3.35
2023-04-22T04:42:55.686Z,4.25
2023-04-22T04:45:28.168Z,4.18
2023-04-22T04:47:58.514Z,4.25
2023-04-22T04:50:33.619Z,4.00
2023-04-22T04:53:03.435Z,4.47
2023-04-22T04:55:42.521Z,4.15
2023-04-22T04:58:23.542Z,4.03
2023-04-22T05:01:04.276Z,4.18
2023-04-22T05:03:32.317Z,4.40
2023-04-22T05:06:01.157Z,3.85
2023-04-22T05:08:29.335Z,4.53
2023-04-22T05:11:04.742Z,4.47
2023-04-22T05:13:34.356Z,4.95
2023-04-22T05:16:07.844Z,4.65
2023-04-22T05:18:35.951Z,4.35
2023-04-22T05:21:08.664Z,5.03
2023-04-22T05:23:37.013Z,3.95
2023-04-22T05:26:07.064Z,4.25
2023-04-22T05:28:38.683Z,4.35
2023-04-22T05:31:06.964Z,5.30
2023-04-22T05:33:35.124Z,4.60
2023-04-22T05:36:03.537Z,4.80
2023-04-22T05:38:32.101Z,4.45
2023-04-22T05:41:01.168Z,4.40
2023-04-22T05:43:29.966Z,5.63
2023-04-22T05:46:06.573Z,5.80
2023-04-22T05:48:37.742Z,5.13
2023-04-22T05:51:09.512Z,6.72
2023-04-22T05:53:38.006Z,5.65
2023-04-22T05:56:06.993Z,5.00
2023-04-22T05:58:35.227Z,5.55
2023-04-22T06:01:11.975Z,6.00
2023-04-22T06:03:57.402Z,5.22
2023-04-22T06:06:27.445Z,5.75
2023-04-22T06:08:55.836Z,5.68
2023-04-22T06:11:23.943Z,5.88
2023-04-22T06:13:53.571Z,6.50
2023-04-22T06:16:23.246Z,5.75
2023-04-22T06:18:51.768Z,5.70
2023-04-22T06:21:22.144Z,5.50
2023-04-22T06:23:50.417Z,6.93
2023-04-22T06:26:18.749Z,5.80
2023-04-22T06:28:47.270Z,5.95
2023-04-22T06:31:21.029Z,5.57
2023-04-22T06:33:50.920Z,5.90
2023-04-22T06:36:20.058Z,6.00
2023-04-22T06:38:55.559Z,4.18
2023-04-22T06:41:41.832Z,5.18
2023-04-22T06:44:25.068Z,4.68
2023-04-22T06:47:11.879Z,5.15
2023-04-22T06:49:55.364Z,4.93
2023-04-22T06:52:34.953Z,4.18
2023-04-22T06:55:04.335Z,4.13
2023-04-22T06:57:33.577Z,4.10
2023-04-22T07:00:01.913Z,4.72
2023-04-22T07:02:32.130Z,4.90
2023-04-22T07:05:02.708Z,3.90
2023-04-22T07:07:30.856Z,4.38
2023-04-22T07:09:59.033Z,4.85
2023-04-22T07:12:34.020Z,4.10
2023-04-22T07:15:02.303Z,4.22
2023-04-22T07:17:30.477Z,4.65
2023-04-22T07:19:58.711Z,3.95
2023-04-22T07:22:28.217Z,4.10
2023-04-22T07:24:56.728Z,3.10
2023-04-22T07:27:24.930Z,3.97
2023-04-22T07:29:53.653Z,4.00
2023-04-22T07:32:22.235Z,4.32
2023-04-22T07:34:50.432Z,4.10
2023-04-22T07:37:18.631Z,4.13
2023-04-22T07:39:48.393Z,4.50
2023-04-22T07:42:16.711Z,4.57
2023-04-22T07:44:44.868Z,4.53
2023-04-22T07:47:12.966Z,4.40
2023-04-22T07:49:41.417Z,4.43
2023-04-22T07:52:09.714Z,4.40
2023-04-22T07:54:37.858Z,3.80
2023-04-22T07:57:07.406Z,4.65
2023-04-22T07:59:35.752Z,4.18
2023-04-22T08:02:03.952Z,3.80
2023-04-22T08:04:32.627Z,3.40
2023-04-22T08:07:17.069Z,3.03
2023-04-22T08:09:46.840Z,3.42
2023-04-22T08:12:16.427Z,3.10
2023-04-22T08:14:44.749Z,3.33
2023-04-22T08:17:12.953Z,3.20
2023-04-22T08:19:41.441Z,3.25
2023-04-22T08:22:09.655Z,2.70
2023-04-22T08:24:39.504Z,2.60
2023-04-22T08:27:09.067Z,3.22
2023-04-22T08:29:41.382Z,2.40
2023-04-22T08:32:11.570Z,2.42
2023-04-22T08:34:41.636Z,1.70
2023-04-22T08:37:09.774Z,2.30
2023-04-22T08:39:38.128Z,2.00
2023-04-22T08:42:06.793Z,1.90
2023-04-22T08:44:36.728Z,2.10
2023-04-22T08:47:06.808Z,2.05
2023-04-22T08:49:36.651Z,2.10
2023-04-22T08:52:05.080Z,1.60
2023-04-22T08:54:34.460Z,1.85
2023-04-22T08:57:03.549Z,1.90
2023-04-22T08:59:32.362Z,2.00
2023-04-22T09:02:01.073Z,1.60
2023-04-22T09:04:31.111Z,1.85
2023-04-22T09:07:01.026Z,2.33
2023-04-22T09:09:31.810Z,2.30
2023-04-22T09:12:00.002Z,2.35
2023-04-22T09:14:28.603Z,2.15
2023-04-22T09:16:59.400Z,2.00
2023-04-22T09:19:27.756Z,1.95
2023-04-22T09:21:59.218Z,1.90
2023-04-22T09:24:27.710Z,1.88
2023-04-22T09:26:57.184Z,1.98
2023-04-22T09:29:31.368Z,1.90
2023-04-22T09:31:59.435Z,2.20
2023-04-22T09:34:29.052Z,2.10
2023-04-22T09:36:58.538Z,2.40
2023-04-22T09:39:26.841Z,2.10
2023-04-22T09:41:56.585Z,3.10
2023-04-22T09:44:29.231Z,3.50
2023-04-22T09:46:57.408Z,2.45
2023-04-22T09:49:28.529Z,2.55
2023-04-22T09:51:59.055Z,2.15
2023-04-22T09:54:27.293Z,2.83
2023-04-22T09:56:55.560Z,2.90
2023-04-22T09:59:25.532Z,2.80
2023-04-22T10:01:56.216Z,2.55
2023-04-22T10:04:25.953Z,2.53
2023-04-22T10:06:55.103Z,2.28
2023-04-22T10:09:26.296Z,1.90
2023-04-22T10:11:58.295Z,2.33
2023-04-22T10:14:27.295Z,2.13
2023-04-22T10:16:59.308Z,1.92
2023-04-22T10:19:28.573Z,2.75
2023-04-22T10:21:58.923Z,1.80
2023-04-22T10:24:30.853Z,2.30
2023-04-22T10:27:01.496Z,2.20
2023-04-22T10:29:39.597Z,2.50
2023-04-22T10:32:25.733Z,2.20
2023-04-22T10:35:10.171Z,2.50
2023-04-22T10:37:39.090Z,2.10
2023-04-22T10:40:11.280Z,2.37
2023-04-22T10:42:41.757Z,2.73
2023-04-22T10:45:14.868Z,2.10
2023-04-22T10:47:43.338Z,2.50
2023-04-22T10:50:18.012Z,2.50
2023-04-22T10:52:49.852Z,2.83
2023-04-22T10:55:20.086Z,2.50
2023-04-22T10:57:50.187Z,3.40
2023-04-22T11:00:53.128Z,2.77
2023-04-22T11:03:28.782Z,2.40
2023-04-22T11:06:16.922Z,2.20
2023-04-22T11:08:46.649Z,2.90
2023-04-22T11:11:18.769Z,2.63
2023-04-22T11:13:50.804Z,2.53
2023-04-22T11:16:23.043Z,2.70
2023-04-22T11:18:51.303Z,3.17
2023-04-22T11:21:19.552Z,2.60
2023-04-22T11:23:52.854Z,2.60
2023-04-22T11:26:35.488Z,2.30
2023-04-22T11:29:03.804Z,2.60
2023-04-22T11:31:31.973Z,3.07
2023-04-22T11:34:00.662Z,2.60
2023-04-22T11:36:28.967Z,2.23
2023-04-22T11:38:57.478Z,2.70
2023-04-22T11:41:30.098Z,2.90
2023-04-22T11:43:58.330Z,2.13
2023-04-22T11:46:31.410Z,3.03
2023-04-22T11:49:13.870Z,2.33
2023-04-22T11:51:54.614Z,2.80
2023-04-22T11:54:32.710Z,2.50
2023-04-22T11:57:04.738Z,2.73
2023-04-22T11:59:33.012Z,2.77
2023-04-22T12:02:01.460Z,2.87
2023-04-22T12:04:29.835Z,2.50
2023-04-22T12:06:58.509Z,4.03
2023-04-22T12:09:26.852Z,2.80
2023-04-22T12:11:55.154Z,2.43
2023-04-22T12:14:32.601Z,2.53
2023-04-22T12:17:04.287Z,2.30
2023-04-22T12:19:32.637Z,2.30
2023-04-22T12:22:01.228Z,2.70
2023-04-22T12:24:30.265Z,2.60
2023-04-22T12:26:58.793Z,3.03
2023-04-22T12:29:33.791Z,2.77
2023-04-22T12:32:02.438Z,2.87
2023-04-22T12:34:30.586Z,3.00
2023-04-22T12:36:58.874Z,3.20
2023-04-22T12:39:27.333Z,3.40
2023-04-22T12:41:55.705Z,3.53
2023-04-22T12:44:25.160Z,3.40
2023-04-22T12:46:55.084Z,3.00
2023-04-22T12:49:23.274Z,2.50
2023-04-22T12:51:51.459Z,3.23
2023-04-22T12:54:20.221Z,3.10
2023-04-22T12:56:48.754Z,3.10
2023-04-22T12:59:17.255Z,3.20
2023-04-22T13:01:45.562Z,2.90
2023-04-22T13:04:15.549Z,3.80
2023-04-22T13:06:44.204Z,2.80
2023-04-22T13:09:13.027Z,3.50
2023-04-22T13:11:41.351Z,3.20
2023-04-22T13:14:09.492Z,3.73
2023-04-22T13:16:37.972Z,3.40
2023-04-22T13:19:06.154Z,3.97
2023-04-22T13:21:35.814Z,3.07
2023-04-22T13:24:04.414Z,3.10
2023-04-22T13:26:32.633Z,3.70
2023-04-22T13:29:02.816Z,2.70
2023-04-22T13:31:31.271Z,3.50
2023-04-22T13:33:59.527Z,3.00
2023-04-22T13:36:27.853Z,3.53
2023-04-22T13:38:58.569Z,3.13
2023-04-22T13:41:26.680Z,3.50
2023-04-22T13:43:56.198Z,2.67
2023-04-22T13:46:26.526Z,2.63
2023-04-22T13:48:55.401Z,2.90
2023-04-22T13:51:24.203Z,3.10
2023-04-22T13:53:52.476Z,2.60
2023-04-22T13:56:21.985Z,2.47
2023-04-22T13:58:50.140Z,2.37
2023-04-22T14:01:18.952Z,2.67
2023-04-22T14:03:47.890Z,2.67
2023-04-22T14:06:16.332Z,2.40
2023-04-22T14:08:44.873Z,2.63
2023-04-22T14:11:13.894Z,3.37
2023-04-22T14:13:45.080Z,2.57
2023-04-22T14:16:13.920Z,2.90
2023-04-22T14:18:42.755Z,2.77
2023-04-22T14:21:10.946Z,2.60
2023-04-22T14:23:40.237Z,3.33
2023-04-22T14:26:10.351Z,2.80
2023-04-22T14:28:39.072Z,2.67
2023-04-22T14:31:09.860Z,2.35
2023-04-22T14:33:37.977Z,2.78
2023-04-22T14:36:06.823Z,2.88
2023-04-22T14:38:34.935Z,2.90
2023-04-22T14:41:03.759Z,2.60
2023-04-22T14:43:33.345Z,2.50
2023-04-22T14:46:01.828Z,3.05
2023-04-22T14:48:32.439Z,2.70
2023-04-22T14:51:00.977Z,3.53
2023-04-22T14:53:29.276Z,2.20
2023-04-22T14:55:57.793Z,2.72
2023-04-22T14:58:27.070Z,2.90
2023-04-22T15:00:55.528Z,2.53
2023-04-22T15:03:23.792Z,2.90
2023-04-22T15:05:53.925Z,2.70
2023-04-22T15:08:22.330Z,2.20
2023-04-22T15:10:50.763Z,2.72
2023-04-22T15:13:19.630Z,2.40
2023-04-22T15:15:47.937Z,2.55
2023-04-22T15:18:16.316Z,2.33
2023-04-22T15:20:44.424Z,2.30
2023-04-22T15:23:14.223Z,2.42
2023-04-22T15:25:43.101Z,2.45
2023-04-22T15:28:11.387Z,3.00
2023-04-22T15:30:40.616Z,2.40
2023-04-22T15:33:08.903Z,2.03
2023-04-22T15:35:37.134Z,2.17
2023-04-22T15:38:05.851Z,3.08
2023-04-22T15:40:35.287Z,2.45
2023-04-22T15:43:03.629Z,2.42
2023-04-22T15:45:31.886Z,1.90
2023-04-22T15:48:00.223Z,3.08
2023-04-22T15:50:28.419Z,2.47
2023-04-22T15:52:56.600Z,2.40
2023-04-22T15:55:24.968Z,2.90
2023-04-22T15:57:55.233Z,2.33
2023-04-22T16:00:24.611Z,2.50
2023-04-22T16:02:56.532Z,3.40
2023-04-22T16:05:26.365Z,2.42
2023-04-22T16:07:54.933Z,2.20
2023-04-22T16:10:26.893Z,2.83
2023-04-22T16:12:57.125Z,2.70
2023-04-22T16:15:26.249Z,2.90
2023-04-22T16:17:54.781Z,2.45
2023-04-22T16:20:23.369Z,2.75
2023-04-22T16:22:51.604Z,2.88
2023-04-22T16:25:20.127Z,2.17
2023-04-22T16:27:48.312Z,2.67
2023-04-22T16:30:18.175Z,2.80
2023-04-22T16:32:46.337Z,3.33
2023-04-22T16:35:17.238Z,3.15
2023-04-22T16:37:45.874Z,3.58
2023-04-22T16:40:15.177Z,3.13
2023-04-22T16:42:44.837Z,3.05
2023-04-22T16:45:18.301Z,2.47
2023-04-22T16:47:50.177Z,3.38
2023-04-22T16:50:21.584Z,2.95
2023-04-22T16:52:53.793Z,2.53
2023-04-22T16:55:25.646Z,2.60
2023-04-22T16:57:54.303Z,2.90
2023-04-22T17:00:25.041Z,3.20
2023-04-22T17:03:02.060Z,2.72
2023-04-22T17:05:31.992Z,2.95
2023-04-22T17:08:01.862Z,2.88
2023-04-22T17:10:36.236Z,2.90
2023-04-22T17:13:04.622Z,2.35
2023-04-22T17:15:36.023Z,2.80
2023-04-22T17:18:14.389Z,2.72
2023-04-22T17:20:47.207Z,2.78
2023-04-22T17:23:20.969Z,3.42
2023-04-22T17:25:50.840Z,2.40
2023-04-22T17:28:19.396Z,3.10
2023-04-22T17:30:47.542Z,3.00
2023-04-22T17:33:17.437Z,3.22
2023-04-22T17:35:45.653Z,3.50
2023-04-22T17:38:14.172Z,3.33
2023-04-22T17:40:43.783Z,3.15
2023-04-22T17:43:12.218Z,3.47
2023-04-22T17:45:40.619Z,2.55
2023-04-22T17:48:08.807Z,3.17
2023-04-22T17:50:38.494Z,2.60
2023-04-22T17:53:06.863Z,2.83
2023-04-22T17:55:35.778Z,3.10
2023-04-22T17:58:04.288Z,2.65
2023-04-22T18:00:33.387Z,3.08
2023-04-22T18:03:01.885Z,3.08
2023-04-22T18:05:30.302Z,3.70
2023-04-22T18:08:02.383Z,2.95
2023-04-22T18:10:31.385Z,3.13
2023-04-22T18:12:59.720Z,3.40
2023-04-22T18:15:27.904Z,3.70
2023-04-22T18:17:56.198Z,3.78
2023-04-22T18:20:24.425Z,3.30
2023-04-22T18:22:52.883Z,3.65
2023-04-22T18:25:22.980Z,3.42
2023-04-22T18:27:54.980Z,3.42
2023-04-22T18:30:23.873Z,3.42
2023-04-22T18:32:52.855Z,3.42
2023-04-22T18:35:21.212Z,4.00
2023-04-22T18:37:49.373Z,3.65
2023-04-22T18:40:18.539Z,3.67
2023-04-22T18:42:48.163Z,3.20
2023-04-22T18:45:16.984Z,3.80
2023-04-22T18:47:46.944Z,3.35
2023-04-22T18:50:15.374Z,3.15
2023-04-22T18:52:43.865Z,3.60
2023-04-22T18:55:12.073Z,3.30
2023-04-22T18:57:41.575Z,3.72
2023-04-22T19:00:13.244Z,3.60
2023-04-22T19:02:42.477Z,3.70
2023-04-22T19:05:11.433Z,4.20
2023-04-22T19:07:41.236Z,4.20
2023-04-22T19:10:11.072Z,3.50
2023-04-22T19:12:39.235Z,4.85
2023-04-22T19:15:08.835Z,4.25
2023-04-22T19:17:38.757Z,4.20
2023-04-22T19:20:08.728Z,4.43
2023-04-22T19:22:37.024Z,3.60
2023-04-22T19:25:06.509Z,4.75
2023-04-22T19:27:35.138Z,4.18
2023-04-22T19:30:03.822Z,3.15
2023-04-22T19:32:34.341Z,4.05
2023-04-22T19:35:16.516Z,4.07
2023-04-22T19:37:51.330Z,4.13
2023-04-22T19:40:37.748Z,3.58
2023-04-22T19:43:11.853Z,3.17
2023-04-22T19:49:06.604Z,3.75
2023-04-22T19:51:50.353Z,3.10
2023-04-22T19:54:33.002Z,3.47
2023-04-22T19:57:02.284Z,2.95
2023-04-22T19:59:31.740Z,3.97
2023-04-22T20:02:00.923Z,3.10
2023-04-22T20:04:29.962Z,3.00
2023-04-22T20:07:02.908Z,3.17
2023-04-22T20:09:33.955Z,3.33
2023-04-22T20:12:02.955Z,3.47
2023-04-22T20:14:33.303Z,3.65
2023-04-22T20:17:02.408Z,2.55
2023-04-22T20:19:30.821Z,3.85
2023-04-22T20:22:01.856Z,2.40
2023-04-22T20:24:31.652Z,3.22
2023-04-22T20:27:00.390Z,3.55
2023-04-22T20:29:30.017Z,4.05
2023-04-22T20:31:59.289Z,3.20
2023-04-22T20:34:28.343Z,3.67
2023-04-22T20:36:56.801Z,3.20
2023-04-22T20:39:27.875Z,3.65
2023-04-22T20:41:57.530Z,3.10
2023-04-22T20:44:26.191Z,3.42
2023-04-22T20:46:55.753Z,3.70
2023-04-22T20:49:23.954Z,2.50
2023-04-22T20:52:00.283Z,2.90
2023-04-22T20:54:40.919Z,3.30
2023-04-22T20:57:22.646Z,2.85
2023-04-22T20:59:59.276Z,3.45
2023-04-22T21:02:35.292Z,3.42
2023-04-22T21:05:14.685Z,3.60
2023-04-22T21:07:55.031Z,3.95
2023-04-22T21:10:31.825Z,3.25
2023-04-22T21:13:00.120Z,3.08
2023-04-22T21:15:29.552Z,3.42
2023-04-22T21:17:59.523Z,3.55
2023-04-22T21:20:30.847Z,4.00
2023-04-22T21:22:59.724Z,3.50
2023-04-22T21:25:28.976Z,4.78
2023-04-22T21:27:59.268Z,4.15
2023-04-22T21:30:30.162Z,3.60
2023-04-22T21:32:58.374Z,4.20
2023-04-22T21:35:26.488Z,4.40
2023-04-22T21:37:55.446Z,4.88
2023-04-22T21:40:23.917Z,3.80
2023-04-22T21:42:52.062Z,4.20
2023-04-22T21:45:21.618Z,4.65
2023-04-22T21:47:50.116Z,4.03
2023-04-22T21:50:20.290Z,4.13
2023-04-22T21:52:49.617Z,4.05
2023-04-22T21:55:18.257Z,4.10
2023-04-22T21:57:46.803Z,3.92
2023-04-22T22:00:17.411Z,4.05
2023-04-22T22:02:47.793Z,4.00
2023-04-22T22:05:16.773Z,3.80
2023-04-22T22:07:45.144Z,3.30
2023-04-22T22:10:15.322Z,3.88
2023-04-22T22:12:43.363Z,3.78
2023-04-22T22:15:12.595Z,3.30
2023-04-22T22:17:40.792Z,3.90
2023-04-22T22:20:12.964Z,3.78
2023-04-22T22:22:41.840Z,3.75
2023-04-22T22:25:11.743Z,3.65
2023-04-22T22:27:41.837Z,3.85
2023-04-22T22:30:10.672Z,4.20
2023-04-22T22:32:38.901Z,3.70
2023-04-22T22:35:08.054Z,3.60
2023-04-22T22:37:37.868Z,4.03
2023-04-22T22:40:07.032Z,3.35
2023-04-22T22:42:35.207Z,3.67
2023-04-22T22:45:05.022Z,3.20
2023-04-22T22:47:33.274Z,4.05
2023-04-22T22:50:01.521Z,3.80
2023-04-22T22:52:29.862Z,3.88
2023-04-22T22:54:59.435Z,3.80
2023-04-22T22:57:27.539Z,3.67
2023-04-22T22:59:55.649Z,3.85
2023-04-22T23:02:23.989Z,4.60
2023-04-22T23:04:52.296Z,4.45
2023-04-22T23:07:20.445Z,4.22
2023-04-22T23:09:48.601Z,4.43
2023-04-22T23:12:18.047Z,4.25
2023-04-22T23:14:46.130Z,4.50
2023-04-22T23:17:17.140Z,4.15
2023-04-22T23:19:45.698Z,3.83
2023-04-22T23:22:14.956Z,4.40
2023-04-22T23:24:43.809Z,4.05
2023-04-22T23:27:12.521Z,3.92
2023-04-22T23:29:43.936Z,4.22
2023-04-22T23:32:16.181Z,4.78
2023-04-22T23:34:46.460Z,4.90
2023-04-22T23:37:16.215Z,3.78
2023-04-22T23:39:44.424Z,3.83
2023-04-22T23:42:12.547Z,4.07
2023-04-22T23:44:42.306Z,3.47
2023-04-22T23:47:10.879Z,4.22
2023-04-22T23:49:39.033Z,3.65
2023-04-22T23:52:08.010Z,3.20
2023-04-22T23:54:36.559Z,4.07
2023-04-22T23:57:05.071Z,4.35
2023-04-22T23:59:33.902Z,3.95
